sensor_id;sensor_type;location;lat;lon;timestamp;pressure;altitude;pressure_sealevel;temperature;humidity
31761;BME280;18335;51.486;7.562;2023-03-20T00:00:06;100478.28;;;11.08;100.00
31761;BME280;18335;51.486;7.562;2023-03-20T00:02:35;100467.69;;;11.05;100.00
31761;BME280;18335;51.486;7.562;2023-03-20T00:05:20;100473.88;;;11.16;100.00
31761;BME280;18335;51.486;7.562;2023-03-20T00:07:48;100466.84;;;11.05;100.00
31761;BME280;18335;51.486;7.562;2023-03-20T00:10:16;100477.59;;;11.06;100.00
31761;BME280;18335;51.486;7.562;2023-03-20T00:12:44;100473.75;;;10.91;100.00
31761;BME280;18335;51.486;7.562;2023-03-20T00:15:25;100482.06;;;11.07;100.00
31761;BME280;18335;51.486;7.562;2023-03-20T00:17:52;100488.59;;;10.89;100.00
31761;BME280;18335;51.486;7.562;2023-03-20T00:20:21;100487.78;;;10.96;100.00
31761;BME280;18335;51.486;7.562;2023-03-20T00:22:48;100489.78;;;10.86;100.00
31761;BME280;18335;51.486;7.562;2023-03-20T00:25:16;100501.16;;;10.82;100.00
31761;BME280;18335;51.486;7.562;2023-03-20T00:27:44;100500.56;;;10.70;100.00
31761;BME280;18335;51.486;7.562;2023-03-20T00:30:24;100508.28;;;11.00;100.00
31761;BME280;18335;51.486;7.562;2023-03-20T00:32:54;100497.56;;;10.81;100.00
31761;BME280;18335;51.486;7.562;2023-03-20T00:35:25;100496.59;;;10.90;100.00
31761;BME280;18335;51.486;7.562;2023-03-20T00:37:53;100503.94;;;10.64;100.00
31761;BME280;18335;51.486;7.562;2023-03-20T00:40:20;100499.56;;;10.71;100.00
31761;BME280;18335;51.486;7.562;2023-03-20T00:42:50;100514.91;;;10.72;100.00
31761;BME280;18335;51.486;7.562;2023-03-20T00:45:21;100509.72;;;10.61;100.00
31761;BME280;18335;51.486;7.562;2023-03-20T00:47:49;100512.75;;;10.58;100.00
31761;BME280;18335;51.486;7.562;2023-03-20T00:50:20;100504.53;;;10.50;100.00
31761;BME280;18335;51.486;7.562;2023-03-20T00:52:50;100505.66;;;10.65;100.00
31761;BME280;18335;51.486;7.562;2023-03-20T00:55:17;100496.47;;;10.48;100.00
31761;BME280;18335;51.486;7.562;2023-03-20T00:57:48;100507.31;;;10.58;100.00
31761;BME280;18335;51.486;7.562;2023-03-20T01:00:23;100496.06;;;10.61;100.00
31761;BME280;18335;51.486;7.562;2023-03-20T01:02:52;100505.50;;;10.67;100.00
31761;BME280;18335;51.486;7.562;2023-03-20T01:08:11;100511.28;;;10.89;100.00
31761;BME280;18335;51.486;7.562;2023-03-20T01:10:37;100505.28;;;10.86;100.00
31761;BME280;18335;51.486;7.562;2023-03-20T01:13:12;100498.66;;;10.88;100.00
31761;BME280;18335;51.486;7.562;2023-03-20T01:15:40;100498.06;;;10.51;100.00
31761;BME280;18335;51.486;7.562;2023-03-20T01:18:11;100491.34;;;10.45;100.00
31761;BME280;18335;51.486;7.562;2023-03-20T01:20:38;100496.78;;;10.20;100.00
31761;BME280;18335;51.486;7.562;2023-03-20T01:23:07;100505.63;;;10.22;100.00
31761;BME280;18335;51.486;7.562;2023-03-20T01:25:34;100494.50;;;10.33;100.00
31761;BME280;18335;51.486;7.562;2023-03-20T01:28:02;100500.81;;;10.16;100.00
31761;BME280;18335;51.486;7.562;2023-03-20T01:30:33;100500.16;;;9.86;100.00
31761;BME280;18335;51.486;7.562;2023-03-20T01:33:00;100496.97;;;10.09;100.00
31761;BME280;18335;51.486;7.562;2023-03-20T01:35:29;100498.06;;;9.80;100.00
31761;BME280;18335;51.486;7.562;2023-03-20T01:38:00;100504.53;;;9.97;100.00
31761;BME280;18335;51.486;7.562;2023-03-20T01:40:32;100510.00;;;9.97;100.00
31761;BME280;18335;51.486;7.562;2023-03-20T01:43:01;100504.84;;;10.12;100.00
31761;BME280;18335;51.486;7.562;2023-03-20T01:45:31;100509.59;;;10.10;100.00
31761;BME280;18335;51.486;7.562;2023-03-20T01:48:08;100513.44;;;10.17;100.00
31761;BME280;18335;51.486;7.562;2023-03-20T01:50:39;100521.81;;;9.70;100.00
31761;BME280;18335;51.486;7.562;2023-03-20T01:53:14;100520.41;;;9.84;100.00
31761;BME280;18335;51.486;7.562;2023-03-20T01:55:52;100533.16;;;9.83;100.00
31761;BME280;18335;51.486;7.562;2023-03-20T01:58:23;100534.91;;;9.84;100.00
31761;BME280;18335;51.486;7.562;2023-03-20T02:00:52;100529.88;;;9.80;100.00
31761;BME280;18335;51.486;7.562;2023-03-20T02:03:19;100538.19;;;9.61;100.00
31761;BME280;18335;51.486;7.562;2023-03-20T02:06:06;100534.28;;;9.90;100.00
31761;BME280;18335;51.486;7.562;2023-03-20T02:09:12;100526.66;;;9.76;100.00
31761;BME280;18335;51.486;7.562;2023-03-20T02:11:44;100527.81;;;9.91;100.00
31761;BME280;18335;51.486;7.562;2023-03-20T02:14:12;100511.38;;;9.83;100.00
31761;BME280;18335;51.486;7.562;2023-03-20T02:17:08;100509.72;;;9.73;100.00
31761;BME280;18335;51.486;7.562;2023-03-20T02:19:57;100508.19;;;9.88;100.00
31761;BME280;18335;51.486;7.562;2023-03-20T02:22:42;100507.78;;;9.83;100.00
31761;BME280;18335;51.486;7.562;2023-03-20T02:25:38;100515.34;;;9.89;100.00
31761;BME280;18335;51.486;7.562;2023-03-20T02:28:27;100515.13;;;10.00;100.00
31761;BME280;18335;51.486;7.562;2023-03-20T02:31:08;100517.13;;;9.80;100.00
31761;BME280;18335;51.486;7.562;2023-03-20T02:34:13;100525.47;;;9.79;100.00
31761;BME280;18335;51.486;7.562;2023-03-20T02:40:01;100537.66;;;9.57;100.00
31761;BME280;18335;51.486;7.562;2023-03-20T02:42:39;100539.47;;;9.66;100.00
31761;BME280;18335;51.486;7.562;2023-03-20T02:45:14;100525.72;;;9.85;100.00
31761;BME280;18335;51.486;7.562;2023-03-20T02:47:48;100526.66;;;9.76;100.00
31761;BME280;18335;51.486;7.562;2023-03-20T02:50:26;100528.25;;;9.69;100.00
31761;BME280;18335;51.486;7.562;2023-03-20T02:53:04;100528.81;;;9.73;100.00
31761;BME280;18335;51.486;7.562;2023-03-20T02:55:41;100524.84;;;9.40;100.00
31761;BME280;18335;51.486;7.562;2023-03-20T02:58:13;100526.84;;;9.65;100.00
31761;BME280;18335;51.486;7.562;2023-03-20T03:00:47;100519.28;;;9.59;100.00
31761;BME280;18335;51.486;7.562;2023-03-20T03:03:18;100526.38;;;9.70;100.00
31761;BME280;18335;51.486;7.562;2023-03-20T03:05:50;100529.25;;;9.68;100.00
31761;BME280;18335;51.486;7.562;2023-03-20T03:08:20;100537.91;;;9.64;100.00
31761;BME280;18335;51.486;7.562;2023-03-20T03:10:54;100544.47;;;9.43;100.00
31761;BME280;18335;51.486;7.562;2023-03-20T03:13:26;100537.44;;;9.41;100.00
31761;BME280;18335;51.486;7.562;2023-03-20T03:15:59;100540.53;;;9.56;100.00
31761;BME280;18335;51.486;7.562;2023-03-20T03:18:28;100545.28;;;9.44;100.00
31761;BME280;18335;51.486;7.562;2023-03-20T03:20:59;100552.56;;;9.53;100.00
31761;BME280;18335;51.486;7.562;2023-03-20T03:23:30;100554.28;;;9.54;100.00
31761;BME280;18335;51.486;7.562;2023-03-20T03:26:01;100551.78;;;9.43;100.00
31761;BME280;18335;51.486;7.562;2023-03-20T03:28:34;100554.97;;;9.29;100.00
31761;BME280;18335;51.486;7.562;2023-03-20T03:31:06;100557.78;;;9.10;100.00
31761;BME280;18335;51.486;7.562;2023-03-20T03:33:37;100554.06;;;9.38;100.00
31761;BME280;18335;51.486;7.562;2023-03-20T03:36:09;100552.38;;;9.37;100.00
31761;BME280;18335;51.486;7.562;2023-03-20T03:38:44;100540.97;;;9.24;100.00
31761;BME280;18335;51.486;7.562;2023-03-20T03:41:20;100555.41;;;9.34;100.00
31761;BME280;18335;51.486;7.562;2023-03-20T03:43:55;100554.78;;;9.03;100.00
31761;BME280;18335;51.486;7.562;2023-03-20T03:46:26;100530.28;;;9.40;100.00
31761;BME280;18335;51.486;7.562;2023-03-20T03:48:59;100513.94;;;9.40;100.00
31761;BME280;18335;51.486;7.562;2023-03-20T03:51:29;100517.41;;;9.32;100.00
31761;BME280;18335;51.486;7.562;2023-03-20T03:54:08;100534.19;;;9.01;100.00
31761;BME280;18335;51.486;7.562;2023-03-20T03:56:40;100518.47;;;9.22;100.00
31761;BME280;18335;51.486;7.562;2023-03-20T03:59:13;100504.81;;;9.31;100.00
31761;BME280;18335;51.486;7.562;2023-03-20T04:01:42;100500.38;;;9.30;100.00
31761;BME280;18335;51.486;7.562;2023-03-20T04:04:13;100504.75;;;9.41;100.00
31761;BME280;18335;51.486;7.562;2023-03-20T04:06:40;100503.13;;;9.21;100.00
31761;BME280;18335;51.486;7.562;2023-03-20T04:09:07;100499.78;;;9.36;100.00
31761;BME280;18335;51.486;7.562;2023-03-20T04:11:34;100504.88;;;9.22;100.00
31761;BME280;18335;51.486;7.562;2023-03-20T04:14:02;100497.41;;;9.24;100.00
31761;BME280;18335;51.486;7.562;2023-03-20T04:16:29;100482.25;;;9.12;100.00
31761;BME280;18335;51.486;7.562;2023-03-20T04:18:56;100498.00;;;9.18;100.00
31761;BME280;18335;51.486;7.562;2023-03-20T04:21:23;100498.75;;;9.10;100.00
31761;BME280;18335;51.486;7.562;2023-03-20T04:23:51;100507.50;;;9.14;100.00
31761;BME280;18335;51.486;7.562;2023-03-20T04:26:20;100533.59;;;8.97;100.00
31761;BME280;18335;51.486;7.562;2023-03-20T04:28:46;100527.84;;;9.10;100.00
31761;BME280;18335;51.486;7.562;2023-03-20T04:31:41;100520.59;;;8.91;100.00
31761;BME280;18335;51.486;7.562;2023-03-20T04:34:14;100519.88;;;8.99;100.00
31761;BME280;18335;51.486;7.562;2023-03-20T04:37:04;100514.44;;;8.89;100.00
31761;BME280;18335;51.486;7.562;2023-03-20T04:39:46;100517.81;;;9.10;100.00
31761;BME280;18335;51.486;7.562;2023-03-20T04:42:13;100518.16;;;8.98;100.00
31761;BME280;18335;51.486;7.562;2023-03-20T04:44:40;100516.16;;;8.90;100.00
31761;BME280;18335;51.486;7.562;2023-03-20T04:47:08;100514.53;;;9.07;100.00
31761;BME280;18335;51.486;7.562;2023-03-20T04:49:38;100509.47;;;9.12;100.00
31761;BME280;18335;51.486;7.562;2023-03-20T04:52:06;100517.69;;;9.02;100.00
31761;BME280;18335;51.486;7.562;2023-03-20T04:54:43;100512.94;;;9.14;100.00
31761;BME280;18335;51.486;7.562;2023-03-20T04:57:10;100503.53;;;8.99;100.00
31761;BME280;18335;51.486;7.562;2023-03-20T04:59:38;100497.63;;;9.03;100.00
31761;BME280;18335;51.486;7.562;2023-03-20T05:02:05;100492.22;;;8.94;100.00
31761;BME280;18335;51.486;7.562;2023-03-20T05:04:33;100494.38;;;8.90;100.00
31761;BME280;18335;51.486;7.562;2023-03-20T05:07:01;100495.53;;;8.87;100.00
31761;BME280;18335;51.486;7.562;2023-03-20T05:09:37;100489.69;;;8.82;100.00
31761;BME280;18335;51.486;7.562;2023-03-20T05:12:05;100485.47;;;8.98;100.00
31761;BME280;18335;51.486;7.562;2023-03-20T05:14:41;100490.09;;;8.87;100.00
31761;BME280;18335;51.486;7.562;2023-03-20T05:17:34;100492.41;;;8.82;100.00
31761;BME280;18335;51.486;7.562;2023-03-20T05:20:21;100480.78;;;8.90;100.00
31761;BME280;18335;51.486;7.562;2023-03-20T05:22:57;100478.13;;;8.80;100.00
31761;BME280;18335;51.486;7.562;2023-03-20T05:25:38;100481.81;;;8.79;100.00
31761;BME280;18335;51.486;7.562;2023-03-20T05:28:22;100492.41;;;8.82;100.00
31761;BME280;18335;51.486;7.562;2023-03-20T05:31:07;100492.38;;;8.92;100.00
31761;BME280;18335;51.486;7.562;2023-03-20T05:33:52;100486.38;;;8.88;100.00
31761;BME280;18335;51.486;7.562;2023-03-20T05:36:30;100491.75;;;9.08;100.00
31761;BME280;18335;51.486;7.562;2023-03-20T05:39:16;100483.91;;;9.05;100.00
31761;BME280;18335;51.486;7.562;2023-03-20T05:42:02;100480.56;;;9.11;100.00
31761;BME280;18335;51.486;7.562;2023-03-20T05:44:47;100495.25;;;8.90;100.00
31761;BME280;18335;51.486;7.562;2023-03-20T05:47:38;100503.69;;;8.87;100.00
31761;BME280;18335;51.486;7.562;2023-03-20T05:50:25;100515.03;;;8.93;100.00
31761;BME280;18335;51.486;7.562;2023-03-20T05:53:06;100522.72;;;8.97;100.00
31761;BME280;18335;51.486;7.562;2023-03-20T05:55:52;100524.22;;;8.72;100.00
31761;BME280;18335;51.486;7.562;2023-03-20T05:58:37;100516.19;;;8.80;100.00
31761;BME280;18335;51.486;7.562;2023-03-20T06:01:06;100516.19;;;8.80;100.00
31761;BME280;18335;51.486;7.562;2023-03-20T06:03:42;100522.38;;;8.63;100.00
31761;BME280;18335;51.486;7.562;2023-03-20T06:06:15;100524.78;;;8.76;100.00
31761;BME280;18335;51.486;7.562;2023-03-20T06:08:47;100521.66;;;8.80;100.00
31761;BME280;18335;51.486;7.562;2023-03-20T06:11:15;100517.66;;;8.75;100.00
31761;BME280;18335;51.486;7.562;2023-03-20T06:13:42;100522.75;;;8.87;100.00
31761;BME280;18335;51.486;7.562;2023-03-20T06:16:09;100516.19;;;8.80;100.00
31761;BME280;18335;51.486;7.562;2023-03-20T06:18:37;100514.78;;;8.76;100.00
31761;BME280;18335;51.486;7.562;2023-03-20T06:21:06;100514.00;;;8.94;100.00
31761;BME280;18335;51.486;7.562;2023-03-20T06:23:33;100510.16;;;8.86;100.00
31761;BME280;18335;51.486;7.562;2023-03-20T06:26:03;100512.16;;;8.84;100.00
31761;BME280;18335;51.486;7.562;2023-03-20T06:28:42;100522.75;;;8.87;100.00
31761;BME280;18335;51.486;7.562;2023-03-20T06:31:08;100522.16;;;8.94;100.00
31761;BME280;18335;51.486;7.562;2023-03-20T06:33:36;100522.16;;;8.94;100.00
31761;BME280;18335;51.486;7.562;2023-03-20T06:36:05;100529.59;;;9.01;100.00
31761;BME280;18335;51.486;7.562;2023-03-20T06:38:32;100529.63;;;8.92;100.00
31761;BME280;18335;51.486;7.562;2023-03-20T06:41:06;100535.34;;;8.88;100.00
31761;BME280;18335;51.486;7.562;2023-03-20T06:43:33;100538.78;;;8.90;100.00
31761;BME280;18335;51.486;7.562;2023-03-20T06:46:01;100549.16;;;8.77;100.00
31761;BME280;18335;51.486;7.562;2023-03-20T06:48:30;100550.81;;;8.98;100.00
31761;BME280;18335;51.486;7.562;2023-03-20T06:50:57;100543.63;;;8.97;100.00
31761;BME280;18335;51.486;7.562;2023-03-20T06:53:31;100551.44;;;8.72;100.00
31761;BME280;18335;51.486;7.562;2023-03-20T06:56:08;100551.81;;;8.87;100.00
31761;BME280;18335;51.486;7.562;2023-03-20T06:58:38;100554.59;;;8.77;100.00
31761;BME280;18335;51.486;7.562;2023-03-20T07:01:09;100550.31;;;8.65;100.00
31761;BME280;18335;51.486;7.562;2023-03-20T07:03:37;100556.03;;;8.72;100.00
31761;BME280;18335;51.486;7.562;2023-03-20T07:06:05;100557.44;;;8.76;100.00
31761;BME280;18335;51.486;7.562;2023-03-20T07:08:32;100545.34;;;8.98;100.00
31761;BME280;18335;51.486;7.562;2023-03-20T07:10:59;100549.41;;;8.84;100.00
31761;BME280;18335;51.486;7.562;2023-03-20T07:13:31;100555.53;;;8.96;100.00
31761;BME280;18335;51.486;7.562;2023-03-20T07:16:06;100555.97;;;8.91;100.00
31761;BME280;18335;51.486;7.562;2023-03-20T07:18:37;100560.34;;;9.11;100.00
31761;BME280;18335;51.486;7.562;2023-03-20T07:21:05;100567.09;;;9.44;100.00
31761;BME280;18335;51.486;7.562;2023-03-20T07:23:33;100568.75;;;9.27;100.00
31761;BME280;18335;51.486;7.562;2023-03-20T07:26:01;100567.69;;;9.01;100.00
31761;BME280;18335;51.486;7.562;2023-03-20T07:28:31;100568.25;;;9.41;100.00
31761;BME280;18335;51.486;7.562;2023-03-20T07:31:19;100567.28;;;9.33;100.00
31761;BME280;18335;51.486;7.562;2023-03-20T07:33:50;100575.13;;;9.09;100.00
31761;BME280;18335;51.486;7.562;2023-03-20T07:36:16;100577.63;;;9.29;100.00
31761;BME280;18335;51.486;7.562;2023-03-20T07:38:43;100574.97;;;9.47;100.00
31761;BME280;18335;51.486;7.562;2023-03-20T07:41:11;100580.88;;;9.70;100.00
31761;BME280;18335;51.486;7.562;2023-03-20T07:43:43;100588.41;;;9.58;100.00
31761;BME280;18335;51.486;7.562;2023-03-20T07:46:19;100588.56;;;9.47;100.00
31761;BME280;18335;51.486;7.562;2023-03-20T07:48:46;100583.47;;;9.62;100.00
31761;BME280;18335;51.486;7.562;2023-03-20T07:51:12;100568.50;;;9.75;100.00
31761;BME280;18335;51.486;7.562;2023-03-20T07:53:39;100570.19;;;10.03;100.00
31761;BME280;18335;51.486;7.562;2023-03-20T07:56:07;100572.75;;;10.15;100.00
31761;BME280;18335;51.486;7.562;2023-03-20T07:58:34;100572.91;;;10.03;100.00
31761;BME280;18335;51.486;7.562;2023-03-20T08:01:03;100571.69;;;10.16;100.00
31761;BME280;18335;51.486;7.562;2023-03-20T08:03:29;100577.25;;;10.24;100.00
31761;BME280;18335;51.486;7.562;2023-03-20T08:05:57;100572.44;;;9.90;100.00
31761;BME280;18335;51.486;7.562;2023-03-20T08:08:23;100559.72;;;10.44;100.00
31761;BME280;18335;51.486;7.562;2023-03-20T08:10:50;100579.09;;;10.06;100.00
31761;BME280;18335;51.486;7.562;2023-03-20T08:13:17;100567.03;;;10.43;100.00
31761;BME280;18335;51.486;7.562;2023-03-20T08:15:45;100577.56;;;10.38;100.00
31761;BME280;18335;51.486;7.562;2023-03-20T08:18:13;100578.97;;;10.42;100.00
31761;BME280;18335;51.486;7.562;2023-03-20T08:20:40;100574.28;;;10.52;100.00
31761;BME280;18335;51.486;7.562;2023-03-20T08:23:06;100572.88;;;10.48;100.00
31761;BME280;18335;51.486;7.562;2023-03-20T08:25:33;100575.22;;;10.43;100.00
31761;BME280;18335;51.486;7.562;2023-03-20T08:28:00;100573.50;;;10.42;100.00
31761;BME280;18335;51.486;7.562;2023-03-20T08:30:27;100587.28;;;10.59;100.00
31761;BME280;18335;51.486;7.562;2023-03-20T08:32:54;100580.28;;;10.56;100.00
31761;BME280;18335;51.486;7.562;2023-03-20T08:35:24;100586.19;;;10.51;100.00
31761;BME280;18335;51.486;7.562;2023-03-20T08:37:50;100580.91;;;10.50;100.00
31761;BME280;18335;51.486;7.562;2023-03-20T08:40:17;100581.00;;;10.40;100.00
31761;BME280;18335;51.486;7.562;2023-03-20T08:42:44;100594.31;;;10.43;100.00
31761;BME280;18335;51.486;7.562;2023-03-20T08:45:11;100595.31;;;10.25;100.00
31761;BME280;18335;51.486;7.562;2023-03-20T08:47:38;100589.78;;;10.34;100.00
31761;BME280;18335;51.486;7.562;2023-03-20T08:50:06;100595.50;;;10.41;100.00
31761;BME280;18335;51.486;7.562;2023-03-20T08:52:34;100592.75;;;10.59;100.00
31761;BME280;18335;51.486;7.562;2023-03-20T08:55:00;100591.53;;;10.35;100.00
31761;BME280;18335;51.486;7.562;2023-03-20T08:57:28;100596.34;;;10.41;100.00
31761;BME280;18335;51.486;7.562;2023-03-20T08:59:54;100587.91;;;10.70;100.00
31761;BME280;18335;51.486;7.562;2023-03-20T09:02:21;100599.31;;;10.48;100.00
31761;BME280;18335;51.486;7.562;2023-03-20T09:04:48;100589.75;;;10.87;100.00
31761;BME280;18335;51.486;7.562;2023-03-20T09:07:14;100593.38;;;10.70;100.00
31761;BME280;18335;51.486;7.562;2023-03-20T09:09:43;100595.94;;;10.72;100.00
31761;BME280;18335;51.486;7.562;2023-03-20T09:12:09;100590.66;;;10.52;100.00
31761;BME280;18335;51.486;7.562;2023-03-20T09:14:36;100600.81;;;10.60;100.00
31761;BME280;18335;51.486;7.562;2023-03-20T09:17:03;100585.22;;;10.78;100.00
31761;BME280;18335;51.486;7.562;2023-03-20T09:19:30;100594.44;;;10.95;100.00
31761;BME280;18335;51.486;7.562;2023-03-20T09:21:56;100587.91;;;10.70;100.00
31761;BME280;18335;51.486;7.562;2023-03-20T09:24:24;100584.09;;;10.81;100.00
31761;BME280;18335;51.486;7.562;2023-03-20T09:26:52;100590.38;;;10.81;100.00
31761;BME280;18335;51.486;7.562;2023-03-20T09:29:18;100584.38;;;10.95;100.00
31761;BME280;18335;51.486;7.562;2023-03-20T09:31:45;100591.66;;;10.87;100.00
31761;BME280;18335;51.486;7.562;2023-03-20T09:34:12;100583.47;;;10.69;100.00
31761;BME280;18335;51.486;7.562;2023-03-20T09:36:38;100593.38;;;10.70;100.00
31761;BME280;18335;51.486;7.562;2023-03-20T09:39:05;100603.38;;;10.44;100.00
31761;BME280;18335;51.486;7.562;2023-03-20T09:41:33;100595.19;;;10.44;100.00
31761;BME280;18335;51.486;7.562;2023-03-20T09:44:09;100591.00;;;10.75;100.00
31761;BME280;18335;51.486;7.562;2023-03-20T09:46:54;100594.50;;;10.42;100.00
31761;BME280;18335;51.486;7.562;2023-03-20T09:49:37;100593.50;;;10.86;100.00
31761;BME280;18335;51.486;7.562;2023-03-20T09:52:15;100593.31;;;10.62;100.00
31761;BME280;18335;51.486;7.562;2023-03-20T09:54:47;100591.41;;;10.80;100.00
31761;BME280;18335;51.486;7.562;2023-03-20T09:57:18;100589.63;;;10.71;100.00
31761;BME280;18335;51.486;7.562;2023-03-20T09:59:49;100593.38;;;11.14;100.00
31761;BME280;18335;51.486;7.562;2023-03-20T10:02:22;100590.56;;;11.05;100.00
31761;BME280;18335;51.486;7.562;2023-03-20T10:04:53;100599.28;;;10.83;100.00
31761;BME280;18335;51.486;7.562;2023-03-20T10:07:21;100597.06;;;11.04;100.00
31761;BME280;18335;51.486;7.562;2023-03-20T10:09:48;100589.28;;;11.18;100.00
31761;BME280;18335;51.486;7.562;2023-03-20T10:12:27;100589.75;;;10.87;100.00
31761;BME280;18335;51.486;7.562;2023-03-20T10:15:00;100587.56;;;10.91;100.00
31761;BME280;18335;51.486;7.562;2023-03-20T10:17:41;100594.38;;;11.13;100.00
31761;BME280;18335;51.486;7.562;2023-03-20T10:20:16;100584.69;;;10.92;100.00
31761;BME280;18335;51.486;7.562;2023-03-20T10:22:52;100580.13;;;11.01;100.00
31761;BME280;18335;51.486;7.562;2023-03-20T10:25:23;100589.22;;;11.35;100.00
31761;BME280;18335;51.486;7.562;2023-03-20T10:27:56;100586.22;;;11.21;100.00
31761;BME280;18335;51.486;7.562;2023-03-20T10:30:47;100587.19;;;11.37;100.00
31761;BME280;18335;51.486;7.562;2023-03-20T10:33:26;100583.44;;;10.87;100.00
31761;BME280;18335;51.486;7.562;2023-03-20T10:36:06;100584.69;;;11.44;100.00
31761;BME280;18335;51.486;7.562;2023-03-20T10:38:39;100582.28;;;11.41;100.00
31761;BME280;18335;51.486;7.562;2023-03-20T10:41:10;100570.09;;;11.69;100.00
31761;BME280;18335;51.486;7.562;2023-03-20T10:43:41;100579.16;;;11.36;100.00
31761;BME280;18335;51.486;7.562;2023-03-20T10:46:13;100577.38;;;11.27;100.00
31761;BME280;18335;51.486;7.562;2023-03-20T10:48:45;100576.25;;;11.11;100.00
31761;BME280;18335;51.486;7.562;2023-03-20T10:51:15;100565.94;;;10.97;100.00
31761;BME280;18335;51.486;7.562;2023-03-20T10:53:46;100564.88;;;11.16;100.00
31761;BME280;18335;51.486;7.562;2023-03-20T10:56:16;100562.16;;;11.16;100.00
31761;BME280;18335;51.486;7.562;2023-03-20T10:58:47;100568.84;;;11.22;100.00
31761;BME280;18335;51.486;7.562;2023-03-20T11:01:17;100561.28;;;11.16;100.00
31761;BME280;18335;51.486;7.562;2023-03-20T11:03:45;100560.19;;;11.34;100.00
31761;BME280;18335;51.486;7.562;2023-03-20T11:06:16;100556.31;;;11.45;100.00
31761;BME280;18335;51.486;7.562;2023-03-20T11:08:47;100563.09;;;11.07;100.00
31761;BME280;18335;51.486;7.562;2023-03-20T11:11:20;100558.56;;;11.16;100.00
31761;BME280;18335;51.486;7.562;2023-03-20T11:13:47;100549.66;;;11.47;100.00
31761;BME280;18335;51.486;7.562;2023-03-20T11:16:21;100548.31;;;11.18;100.00
31761;BME280;18335;51.486;7.562;2023-03-20T11:18:50;100556.31;;;11.45;100.00
31761;BME280;18335;51.486;7.562;2023-03-20T11:21:21;100550.88;;;10.93;100.00
31761;BME280;18335;51.486;7.562;2023-03-20T11:23:49;100542.91;;;11.26;100.00
31761;BME280;18335;51.486;7.562;2023-03-20T11:26:18;100551.91;;;10.92;100.00
31761;BME280;18335;51.486;7.562;2023-03-20T11:28:50;100540.41;;;11.06;100.00
31761;BME280;18335;51.486;7.562;2023-03-20T11:31:24;100535.91;;;10.97;100.00
31761;BME280;18335;51.486;7.562;2023-03-20T11:34:06;100532.25;;;11.15;100.00
31761;BME280;18335;51.486;7.562;2023-03-20T11:36:34;100535.69;;;11.17;100.00
31761;BME280;18335;51.486;7.562;2023-03-20T11:39:06;100521.44;;;11.39;100.00
31761;BME280;18335;51.486;7.562;2023-03-20T11:41:41;100523.91;;;11.16;100.00
31761;BME280;18335;51.486;7.562;2023-03-20T11:44:22;100525.63;;;10.91;100.00
31761;BME280;18335;51.486;7.562;2023-03-20T11:46:56;100506.03;;;11.30;100.00
31761;BME280;18335;51.486;7.562;2023-03-20T11:49:24;100514.09;;;11.73;100.00
31761;BME280;18335;51.486;7.562;2023-03-20T11:51:52;100509.22;;;11.59;100.00
31761;BME280;18335;51.486;7.562;2023-03-20T11:54:22;100509.38;;;12.07;100.00
31761;BME280;18335;51.486;7.562;2023-03-20T11:56:52;100511.72;;;11.78;100.00
31761;BME280;18335;51.486;7.562;2023-03-20T11:59:19;100503.75;;;12.17;100.00
31761;BME280;18335;51.486;7.562;2023-03-20T12:01:49;100503.91;;;11.99;100.00
31761;BME280;18335;51.486;7.562;2023-03-20T12:04:19;100501.88;;;12.09;100.00
31761;BME280;18335;51.486;7.562;2023-03-20T12:06:50;100504.50;;;11.69;100.00
31761;BME280;18335;51.486;7.562;2023-03-20T12:09:27;100503.91;;;11.91;100.00
31761;BME280;18335;51.486;7.562;2023-03-20T12:11:58;100492.06;;;11.83;100.00
31761;BME280;18335;51.486;7.562;2023-03-20T12:14:32;100494.34;;;12.11;100.00
31761;BME280;18335;51.486;7.562;2023-03-20T12:17:19;100499.59;;;11.89;100.00
31761;BME280;18335;51.486;7.562;2023-03-20T12:19:55;100500.16;;;12.08;100.00
31761;BME280;18335;51.486;7.562;2023-03-20T12:22:25;100491.78;;;11.94;100.00
31761;BME280;18335;51.486;7.562;2023-03-20T12:25:00;100497.75;;;11.97;100.00
31761;BME280;18335;51.486;7.562;2023-03-20T12:27:34;100504.59;;;11.93;100.00
31761;BME280;18335;51.486;7.562;2023-03-20T12:30:05;100497.72;;;11.89;100.00
31761;BME280;18335;51.486;7.562;2023-03-20T12:32:40;100490.91;;;11.93;100.00
31761;BME280;18335;51.486;7.562;2023-03-20T12:35:14;100500.78;;;11.70;100.00
31761;BME280;18335;51.486;7.562;2023-03-20T12:37:42;100507.50;;;12.16;100.00
31761;BME280;18335;51.486;7.562;2023-03-20T12:40:12;100502.19;;;11.98;100.00
31761;BME280;18335;51.486;7.562;2023-03-20T12:42:51;100501.88;;;12.34;100.00
31761;BME280;18335;51.486;7.562;2023-03-20T12:45:28;100504.63;;;12.17;100.00
31761;BME280;18335;51.486;7.562;2023-03-20T12:48:18;100509.31;;;11.75;100.00
31761;BME280;18335;51.486;7.562;2023-03-20T12:50:54;100510.91;;;11.44;100.00
31761;BME280;18335;51.486;7.562;2023-03-20T12:53:40;100517.41;;;11.51;100.00
31761;BME280;18335;51.486;7.562;2023-03-20T12:56:25;100511.03;;;11.34;100.00
31761;BME280;18335;51.486;7.562;2023-03-20T12:58:58;100518.00;;;10.51;100.00
31761;BME280;18335;51.486;7.562;2023-03-20T13:01:30;100519.19;;;11.00;100.00
31761;BME280;18335;51.486;7.562;2023-03-20T13:04:19;100514.28;;;11.04;100.00
31761;BME280;18335;51.486;7.562;2023-03-20T13:06:53;100514.16;;;11.14;100.00
31761;BME280;18335;51.486;7.562;2023-03-20T13:09:36;100512.66;;;11.19;100.00
31761;BME280;18335;51.486;7.562;2023-03-20T13:12:13;100510.38;;;10.81;100.00
31761;BME280;18335;51.486;7.562;2023-03-20T13:14:46;100517.47;;;10.99;100.00
31761;BME280;18335;51.486;7.562;2023-03-20T13:17:19;100507.06;;;10.69;100.00